sensor_id;sensor_type;location;lat;lon;timestamp;pressure;altitude;pressure_sealevel;temperature;humidity
79686;BME280;69153;47.918;11.428;2023-06-10T00:01:57;94714.78;;;17.78;50.42
79686;BME280;69153;47.918;11.428;2023-06-10T00:04:25;94719.13;;;17.75;51.25
79686;BME280;69153;47.918;11.428;2023-06-10T00:06:51;94723.97;;;17.71;51.17
79686;BME280;69153;47.918;11.428;2023-06-10T00:09:16;94719.81;;;17.70;51.43
79686;BME280;69153;47.918;11.428;2023-06-10T00:11:44;94725.63;;;17.69;51.20
79686;BME280;69153;47.918;11.428;2023-06-10T00:14:10;94721.72;;;17.64;50.97
79686;BME280;69153;47.918;11.428;2023-06-10T00:16:35;94721.09;;;17.55;51.77
79686;BME280;69153;47.918;11.428;2023-06-10T00:19:02;94718.66;;;17.51;51.73
79686;BME280;69153;47.918;11.428;2023-06-10T00:21:30;94713.22;;;17.45;52.35
79686;BME280;69153;47.918;11.428;2023-06-10T00:24:08;94718.84;;;17.47;52.14
79686;BME280;69153;47.918;11.428;2023-06-10T00:26:40;94719.84;;;17.50;51.71
79686;BME280;69153;47.918;11.428;2023-06-10T00:29:07;94730.09;;;17.52;51.94
79686;BME280;69153;47.918;11.428;2023-06-10T00:31:34;94721.78;;;17.49;52.03
79686;BME280;69153;47.918;11.428;2023-06-10T00:34:01;94732.97;;;17.48;52.41
79686;BME280;69153;47.918;11.428;2023-06-10T00:36:26;94734.38;;;17.43;52.33
79686;BME280;69153;47.918;11.428;2023-06-10T00:38:52;94731.97;;;17.45;52.06
79686;BME280;69153;47.918;11.428;2023-06-10T00:41:17;94728.09;;;17.46;51.90
79686;BME280;69153;47.918;11.428;2023-06-10T00:43:43;94720.06;;;17.46;52.12
79686;BME280;69153;47.918;11.428;2023-06-10T00:46:10;94728.34;;;17.48;51.81
79686;BME280;69153;47.918;11.428;2023-06-10T00:48:38;94728.56;;;17.45;51.97
79686;BME280;69153;47.918;11.428;2023-06-10T00:51:05;94734.38;;;17.43;52.23
79686;BME280;69153;47.918;11.428;2023-06-10T00:53:32;94733.81;;;17.34;51.42
79686;BME280;69153;47.918;11.428;2023-06-10T00:55:58;94734.41;;;17.23;51.06
79686;BME280;69153;47.918;11.428;2023-06-10T00:58:24;94740.63;;;17.14;50.71
79686;BME280;69153;47.918;11.428;2023-06-10T01:00:51;94735.69;;;17.07;50.79
79686;BME280;69153;47.918;11.428;2023-06-10T01:03:16;94744.81;;;16.95;51.38
79686;BME280;69153;47.918;11.428;2023-06-10T01:05:42;94743.19;;;16.83;52.03
79686;BME280;69153;47.918;11.428;2023-06-10T01:08:24;94730.94;;;16.76;52.40
79686;BME280;69153;47.918;11.428;2023-06-10T01:10:58;94731.63;;;16.71;52.94
79686;BME280;69153;47.918;11.428;2023-06-10T01:13:25;94736.78;;;16.60;53.01
79686;BME280;69153;47.918;11.428;2023-06-10T01:16:00;94736.25;;;16.56;52.99
79686;BME280;69153;47.918;11.428;2023-06-10T01:18:32;94737.91;;;16.54;53.13
79686;BME280;69153;47.918;11.428;2023-06-10T01:20:58;94736.16;;;16.51;52.95
79686;BME280;69153;47.918;11.428;2023-06-10T01:23:23;94740.59;;;16.54;53.08
79686;BME280;69153;47.918;11.428;2023-06-10T01:25:57;94737.34;;;16.50;53.46
79686;BME280;69153;47.918;11.428;2023-06-10T01:29:03;94739.78;;;16.48;53.35
79686;BME280;69153;47.918;11.428;2023-06-10T01:31:48;94739.88;;;16.38;53.62
79686;BME280;69153;47.918;11.428;2023-06-10T01:34:18;94744.69;;;16.34;53.83
79686;BME280;69153;47.918;11.428;2023-06-10T01:36:48;94744.00;;;16.19;54.14
79686;BME280;69153;47.918;11.428;2023-06-10T01:39:17;94745.38;;;16.15;54.02
79686;BME280;69153;47.918;11.428;2023-06-10T01:41:44;94746.28;;;16.12;54.08
79686;BME280;69153;47.918;11.428;2023-06-10T01:44:10;94734.13;;;16.11;54.32
79686;BME280;69153;47.918;11.428;2023-06-10T01:46:35;94736.16;;;16.16;54.43
79686;BME280;69153;47.918;11.428;2023-06-10T01:49:01;94738.09;;;16.15;54.56
79686;BME280;69153;47.918;11.428;2023-06-10T01:51:27;94739.00;;;16.12;54.31
79686;BME280;69153;47.918;11.428;2023-06-10T01:53:52;94739.00;;;16.12;54.49
79686;BME280;69153;47.918;11.428;2023-06-10T01:56:18;94741.94;;;16.14;54.71
79686;BME280;69153;47.918;11.428;2023-06-10T01:58:47;94743.16;;;16.13;55.01
79686;BME280;69153;47.918;11.428;2023-06-10T02:01:13;94745.28;;;16.09;54.65
79686;BME280;69153;47.918;11.428;2023-06-10T02:03:39;94746.94;;;16.06;54.64
79686;BME280;69153;47.918;11.428;2023-06-10T02:06:05;94751.09;;;16.07;54.97
79686;BME280;69153;47.918;11.428;2023-06-10T02:08:31;94740.31;;;16.02;55.29
79686;BME280;69153;47.918;11.428;2023-06-10T02:10:56;94751.00;;;16.02;54.94
79686;BME280;69153;47.918;11.428;2023-06-10T02:13:21;94742.25;;;16.01;55.63
79686;BME280;69153;47.918;11.428;2023-06-10T02:15:47;94752.94;;;16.01;55.30
79686;BME280;69153;47.918;11.428;2023-06-10T02:18:12;94751.00;;;16.02;55.63
79686;BME280;69153;47.918;11.428;2023-06-10T02:20:38;94763.16;;;16.03;55.78
79686;BME280;69153;47.918;11.428;2023-06-10T02:23:04;94754.88;;;16.01;55.98
79686;BME280;69153;47.918;11.428;2023-06-10T02:25:30;94756.81;;;16.00;55.63
79686;BME280;69153;47.918;11.428;2023-06-10T02:27:55;94756.97;;;15.97;55.86
79686;BME280;69153;47.918;11.428;2023-06-10T02:30:21;94760.13;;;15.95;55.65
79686;BME280;69153;47.918;11.428;2023-06-10T02:32:46;94762.81;;;15.95;55.63
79686;BME280;69153;47.918;11.428;2023-06-10T02:35:15;94761.63;;;15.96;55.43
79686;BME280;69153;47.918;11.428;2023-06-10T02:37:41;94754.97;;;15.92;55.24
79686;BME280;69153;47.918;11.428;2023-06-10T02:40:08;94756.16;;;15.91;55.04
79686;BME280;69153;47.918;11.428;2023-06-10T02:42:34;94756.91;;;15.91;55.04
79686;BME280;69153;47.918;11.428;2023-06-10T02:44:59;94763.25;;;15.94;55.17
79686;BME280;69153;47.918;11.428;2023-06-10T02:47:26;94754.69;;;15.90;55.17
79686;BME280;69153;47.918;11.428;2023-06-10T02:49:51;94759.28;;;15.89;55.21
79686;BME280;69153;47.918;11.428;2023-06-10T02:52:17;94755.16;;;15.88;55.49
79686;BME280;69153;47.918;11.428;2023-06-10T02:54:42;94756.63;;;15.89;55.00
79686;BME280;69153;47.918;11.428;2023-06-10T02:57:08;94754.41;;;15.88;54.78
79686;BME280;69153;47.918;11.428;2023-06-10T02:59:35;94762.72;;;15.90;54.15
79686;BME280;69153;47.918;11.428;2023-06-10T03:02:00;94759.56;;;15.91;54.08
79686;BME280;69153;47.918;11.428;2023-06-10T03:04:26;94757.53;;;15.86;53.80
79686;BME280;69153;47.918;11.428;2023-06-10T03:06:54;94757.34;;;15.75;54.86
79686;BME280;69153;47.918;11.428;2023-06-10T03:09:20;94757.34;;;15.75;54.45
79686;BME280;69153;47.918;11.428;2023-06-10T03:11:45;94767.69;;;15.67;54.68
79686;BME280;69153;47.918;11.428;2023-06-10T03:14:11;94766.19;;;15.66;54.41
79686;BME280;69153;47.918;11.428;2023-06-10T03:16:36;94760.13;;;15.66;55.07
79686;BME280;69153;47.918;11.428;2023-06-10T03:19:06;94767.28;;;15.60;55.17
79686;BME280;69153;47.918;11.428;2023-06-10T03:21:33;94767.63;;;15.53;56.14
79686;BME280;69153;47.918;11.428;2023-06-10T03:23:58;94767.63;;;15.53;56.04
79686;BME280;69153;47.918;11.428;2023-06-10T03:26:25;94767.78;;;15.49;56.72
79686;BME280;69153;47.918;11.428;2023-06-10T03:28:51;94763.66;;;15.48;56.63
79686;BME280;69153;47.918;11.428;2023-06-10T03:31:16;94760.97;;;15.48;56.74
79686;BME280;69153;47.918;11.428;2023-06-10T03:33:42;94758.13;;;15.52;56.60
79686;BME280;69153;47.918;11.428;2023-06-10T03:36:08;94768.81;;;15.52;56.60
79686;BME280;69153;47.918;11.428;2023-06-10T03:38:33;94768.53;;;15.50;56.63
79686;BME280;69153;47.918;11.428;2023-06-10T03:40:59;94778.03;;;15.51;56.47
79686;BME280;69153;47.918;11.428;2023-06-10T03:43:24;94772.84;;;15.47;56.11
79686;BME280;69153;47.918;11.428;2023-06-10T03:45:50;94774.25;;;15.43;56.16
79686;BME280;69153;47.918;11.428;2023-06-10T03:48:15;94782.13;;;15.37;56.40
79686;BME280;69153;47.918;11.428;2023-06-10T03:50:41;94783.78;;;15.34;56.82
79686;BME280;69153;47.918;11.428;2023-06-10T03:53:07;94789.78;;;15.29;57.29
79686;BME280;69153;47.918;11.428;2023-06-10T03:55:32;94794.16;;;15.32;57.33
79686;BME280;69153;47.918;11.428;2023-06-10T03:57:58;94789.31;;;15.31;57.36
79686;BME280;69153;47.918;11.428;2023-06-10T04:00:23;94786.56;;;15.40;56.80
79686;BME280;69153;47.918;11.428;2023-06-10T04:02:49;94795.88;;;15.45;56.70
79686;BME280;69153;47.918;11.428;2023-06-10T04:05:18;94800.56;;;15.50;56.72
79686;BME280;69153;47.918;11.428;2023-06-10T04:07:47;94789.81;;;15.44;57.16
79686;BME280;69153;47.918;11.428;2023-06-10T04:10:14;94799.75;;;15.44;57.41
79686;BME280;69153;47.918;11.428;2023-06-10T04:12:39;94801.47;;;15.47;57.24
79686;BME280;69153;47.918;11.428;2023-06-10T04:15:06;94798.66;;;15.50;57.35
79686;BME280;69153;47.918;11.428;2023-06-10T04:17:32;94792.56;;;15.50;57.67
79686;BME280;69153;47.918;11.428;2023-06-10T04:19:57;94792.25;;;15.57;57.48
79686;BME280;69153;47.918;11.428;2023-06-10T04:22:26;94797.13;;;15.58;57.66
79686;BME280;69153;47.918;11.428;2023-06-10T04:24:51;94805.69;;;15.62;57.64
79686;BME280;69153;47.918;11.428;2023-06-10T04:27:17;94796.84;;;15.71;57.29
79686;BME280;69153;47.918;11.428;2023-06-10T04:29:42;94806.00;;;15.79;57.43
79686;BME280;69153;47.918;11.428;2023-06-10T04:32:08;94803.91;;;15.83;57.42
79686;BME280;69153;47.918;11.428;2023-06-10T04:34:34;94800.56;;;15.88;57.59
79686;BME280;69153;47.918;11.428;2023-06-10T04:37:00;94809.72;;;15.96;57.47
79686;BME280;69153;47.918;11.428;2023-06-10T04:39:25;94808.78;;;15.99;57.52
79686;BME280;69153;47.918;11.428;2023-06-10T04:42:01;94809.34;;;16.03;57.08
79686;BME280;69153;47.918;11.428;2023-06-10T04:44:27;94816.16;;;16.04;57.02
79686;BME280;69153;47.918;11.428;2023-06-10T04:46:52;94814.69;;;16.03;57.50
79686;BME280;69153;47.918;11.428;2023-06-10T04:49:18;94814.84;;;16.00;57.62
79686;BME280;69153;47.918;11.428;2023-06-10T04:51:43;94824.16;;;16.04;57.83
79686;BME280;69153;47.918;11.428;2023-06-10T04:54:09;94816.78;;;16.14;57.66
79686;BME280;69153;47.918;11.428;2023-06-10T04:56:34;94818.84;;;16.19;57.61
79686;BME280;69153;47.918;11.428;2023-06-10T04:59:00;94822.69;;;16.18;58.01
79686;BME280;69153;47.918;11.428;2023-06-10T05:01:26;94817.44;;;16.24;57.83
79686;BME280;69153;47.918;11.428;2023-06-10T05:03:51;94826.38;;;16.35;57.86
79686;BME280;69153;47.918;11.428;2023-06-10T05:06:17;94813.56;;;16.39;57.96
79686;BME280;69153;47.918;11.428;2023-06-10T05:08:43;94823.22;;;16.52;57.81
79686;BME280;69153;47.918;11.428;2023-06-10T05:11:08;94820.00;;;16.48;58.40
79686;BME280;69153;47.918;11.428;2023-06-10T05:13:33;94819.91;;;16.57;58.23
79686;BME280;69153;47.918;11.428;2023-06-10T05:15:59;94821.47;;;16.63;58.36
79686;BME280;69153;47.918;11.428;2023-06-10T05:18:24;94817.00;;;16.75;58.12
79686;BME280;69153;47.918;11.428;2023-06-10T05:20:50;94828.41;;;16.90;58.44
79686;BME280;69153;47.918;11.428;2023-06-10T05:23:15;94825.16;;;17.01;58.19
79686;BME280;69153;47.918;11.428;2023-06-10T05:25:41;94829.25;;;17.17;58.46
79686;BME280;69153;47.918;11.428;2023-06-10T05:28:08;94828.94;;;17.29;58.39
79686;BME280;69153;47.918;11.428;2023-06-10T05:30:36;94826.88;;;17.39;58.52
79686;BME280;69153;47.918;11.428;2023-06-10T05:33:03;94825.09;;;17.56;58.32
79686;BME280;69153;47.918;11.428;2023-06-10T05:35:29;94827.47;;;17.69;58.14
79686;BME280;69153;47.918;11.428;2023-06-10T05:37:55;94831.22;;;17.77;57.81
79686;BME280;69153;47.918;11.428;2023-06-10T05:40:20;94831.53;;;17.84;57.68
79686;BME280;69153;47.918;11.428;2023-06-10T05:42:46;94837.06;;;18.01;57.55
79686;BME280;69153;47.918;11.428;2023-06-10T05:45:11;94834.88;;;18.05;57.47
79686;BME280;69153;47.918;11.428;2023-06-10T05:47:37;94845.00;;;18.16;57.32
79686;BME280;69153;47.918;11.428;2023-06-10T05:50:02;94839.41;;;18.19;57.21
79686;BME280;69153;47.918;11.428;2023-06-10T05:52:33;94829.03;;;18.33;56.95
79686;BME280;69153;47.918;11.428;2023-06-10T05:54:58;94838.16;;;18.41;57.10
79686;BME280;69153;47.918;11.428;2023-06-10T05:57:25;94835.75;;;18.48;56.79
79686;BME280;69153;47.918;11.428;2023-06-10T05:59:51;94829.56;;;18.63;56.63
79686;BME280;69153;47.918;11.428;2023-06-10T06:02:17;94825.25;;;18.76;55.81
79686;BME280;69153;47.918;11.428;2023-06-10T06:04:42;94839.69;;;18.84;55.91
79686;BME280;69153;47.918;11.428;2023-06-10T06:07:08;94836.38;;;18.95;55.74
79686;BME280;69153;47.918;11.428;2023-06-10T06:09:33;94833.69;;;19.01;55.49
79686;BME280;69153;47.918;11.428;2023-06-10T06:11:59;94838.13;;;19.09;55.35
79686;BME280;69153;47.918;11.428;2023-06-10T06:14:24;94832.53;;;19.07;56.09
79686;BME280;69153;47.918;11.428;2023-06-10T06:16:50;94832.81;;;19.15;55.59
79686;BME280;69153;47.918;11.428;2023-06-10T06:19:15;94834.59;;;19.29;55.05
79686;BME280;69153;47.918;11.428;2023-06-10T06:21:41;94829.72;;;19.39;54.99
79686;BME280;69153;47.918;11.428;2023-06-10T06:24:06;94837.81;;;19.44;55.17
79686;BME280;69153;47.918;11.428;2023-06-10T06:26:32;94837.56;;;19.48;55.14
79686;BME280;69153;47.918;11.428;2023-06-10T06:28:57;94839.06;;;19.49;54.87
79686;BME280;69153;47.918;11.428;2023-06-10T06:31:23;94830.25;;;19.48;55.21
79686;BME280;69153;47.918;11.428;2023-06-10T06:33:48;94832.03;;;19.57;55.11
79686;BME280;69153;47.918;11.428;2023-06-10T06:36:14;94827.19;;;19.67;54.89
79686;BME280;69153;47.918;11.428;2023-06-10T06:38:39;94825.72;;;19.77;54.83
79686;BME280;69153;47.918;11.428;2023-06-10T06:41:04;94834.28;;;19.75;54.64
79686;BME280;69153;47.918;11.428;2023-06-10T06:43:32;94828.69;;;19.73;54.37
79686;BME280;69153;47.918;11.428;2023-06-10T06:45:58;94828.69;;;19.79;54.22
79686;BME280;69153;47.918;11.428;2023-06-10T06:48:23;94831.34;;;19.68;54.12
79686;BME280;69153;47.918;11.428;2023-06-10T06:50:49;94838.91;;;19.63;54.88
79686;BME280;69153;47.918;11.428;2023-06-10T06:53:14;94833.81;;;19.88;53.89
79686;BME280;69153;47.918;11.428;2023-06-10T06:55:40;94839.50;;;20.07;53.60
79686;BME280;69153;47.918;11.428;2023-06-10T06:58:05;94844.16;;;20.06;52.66
79686;BME280;69153;47.918;11.428;2023-06-10T07:00:31;94841.41;;;19.89;53.98
79686;BME280;69153;47.918;11.428;2023-06-10T07:02:57;94834.34;;;20.03;53.99
79686;BME280;69153;47.918;11.428;2023-06-10T07:05:23;94836.81;;;20.07;54.87
79686;BME280;69153;47.918;11.428;2023-06-10T07:07:50;94837.78;;;20.26;54.48
79686;BME280;69153;47.918;11.428;2023-06-10T07:10:26;94840.53;;;20.43;53.00
79686;BME280;69153;47.918;11.428;2023-06-10T07:12:52;94840.28;;;20.52;53.69
79686;BME280;69153;47.918;11.428;2023-06-10T07:15:18;94839.06;;;20.47;53.86
79686;BME280;69153;47.918;11.428;2023-06-10T07:17:44;94841.53;;;20.56;53.19
79686;BME280;69153;47.918;11.428;2023-06-10T07:20:10;94846.19;;;20.50;54.06
79686;BME280;69153;47.918;11.428;2023-06-10T07:22:35;94838.81;;;20.56;53.34
79686;BME280;69153;47.918;11.428;2023-06-10T07:25:01;94842.47;;;20.64;53.13
79686;BME280;69153;47.918;11.428;2023-06-10T07:27:26;94846.16;;;20.78;52.34
79686;BME280;69153;47.918;11.428;2023-06-10T07:29:51;94847.63;;;20.74;52.10
79686;BME280;69153;47.918;11.428;2023-06-10T07:32:18;94836.59;;;20.94;51.78
79686;BME280;69153;47.918;11.428;2023-06-10T07:34:45;94837.09;;;20.81;53.18
79686;BME280;69153;47.918;11.428;2023-06-10T07:37:11;94844.19;;;20.84;52.59
79686;BME280;69153;47.918;11.428;2023-06-10T07:39:36;94843.69;;;20.97;50.75
79686;BME280;69153;47.918;11.428;2023-06-10T07:42:02;94843.69;;;21.02;50.12
79686;BME280;69153;47.918;11.428;2023-06-10T07:44:27;94842.94;;;20.96;49.87
79686;BME280;69153;47.918;11.428;2023-06-10T07:46:53;94836.81;;;21.01;50.95
79686;BME280;69153;47.918;11.428;2023-06-10T07:49:18;94839.75;;;21.20;50.15
79686;BME280;69153;47.918;11.428;2023-06-10T07:51:44;94835.53;;;21.30;49.51
79686;BME280;69153;47.918;11.428;2023-06-10T07:54:09;94833.03;;;21.49;48.86
79686;BME280;69153;47.918;11.428;2023-06-10T07:56:37;94834.69;;;21.63;48.27
79686;BME280;69153;47.918;11.428;2023-06-10T07:59:03;94835.97;;;21.46;48.52
79686;BME280;69153;47.918;11.428;2023-06-10T08:01:28;94834.75;;;21.52;49.07
79686;BME280;69153;47.918;11.428;2023-06-10T08:03:55;94841.50;;;21.70;48.94
79686;BME280;69153;47.918;11.428;2023-06-10T08:06:20;94836.13;;;21.70;49.37
79686;BME280;69153;47.918;11.428;2023-06-10T08:08:46;94826.72;;;21.88;48.76
79686;BME280;69153;47.918;11.428;2023-06-10T08:11:11;94825.44;;;22.00;48.97
79686;BME280;69153;47.918;11.428;2023-06-10T08:13:37;94832.97;;;22.13;48.06
79686;BME280;69153;47.918;11.428;2023-06-10T08:16:03;94823.16;;;22.15;47.75
79686;BME280;69153;47.918;11.428;2023-06-10T08:18:29;94821.25;;;22.04;48.68
79686;BME280;69153;47.918;11.428;2023-06-10T08:20:54;94830.44;;;22.26;47.94
79686;BME280;69153;47.918;11.428;2023-06-10T08:23:20;94830.81;;;22.41;47.37
79686;BME280;69153;47.918;11.428;2023-06-10T08:25:45;94821.75;;;22.38;46.86
79686;BME280;69153;47.918;11.428;2023-06-10T08:28:11;94829.53;;;22.48;46.94
79686;BME280;69153;47.918;11.428;2023-06-10T08:30:36;94829.03;;;22.49;46.92
79686;BME280;69153;47.918;11.428;2023-06-10T08:44:02;94828.44;;;21.85;47.54
79686;BME280;69153;47.918;11.428;2023-06-10T08:46:31;94822.28;;;21.90;48.10
79686;BME280;69153;47.918;11.428;2023-06-10T08:49:03;94830.75;;;22.17;46.64
79686;BME280;69153;47.918;11.428;2023-06-10T08:51:31;94829.38;;;22.34;48.23
79686;BME280;69153;47.918;11.428;2023-06-10T08:54:02;94831.63;;;22.60;46.49
79686;BME280;69153;47.918;11.428;2023-06-10T08:56:34;94833.47;;;22.82;46.44
79686;BME280;69153;47.918;11.428;2023-06-10T08:59:03;94830.75;;;23.06;46.17
79686;BME280;69153;47.918;11.428;2023-06-10T09:01:29;94831.47;;;23.31;45.82
79686;BME280;69153;47.918;11.428;2023-06-10T09:03:57;94826.19;;;23.20;45.54
79686;BME280;69153;47.918;11.428;2023-06-10T09:06:25;94826.84;;;23.50;45.25
79686;BME280;69153;47.918;11.428;2023-06-10T09:08:50;94831.53;;;23.26;44.65
79686;BME280;69153;47.918;11.428;2023-06-10T09:11:16;94827.94;;;23.17;45.00
79686;BME280;69153;47.918;11.428;2023-06-10T09:13:42;94824.84;;;23.08;45.37
79686;BME280;69153;47.918;11.428;2023-06-10T09:16:07;94825.16;;;23.47;44.40
79686;BME280;69153;47.918;11.428;2023-06-10T09:18:33;94830.44;;;23.77;44.42
79686;BME280;69153;47.918;11.428;2023-06-10T09:20:59;94817.50;;;23.89;42.08
79686;BME280;69153;47.918;11.428;2023-06-10T09:23:26;94819.56;;;24.02;42.40
79686;BME280;69153;47.918;11.428;2023-06-10T09:25:58;94814.50;;;24.11;41.54
79686;BME280;69153;47.918;11.428;2023-06-10T09:28:24;94812.03;;;24.13;41.81
79686;BME280;69153;47.918;11.428;2023-06-10T09:30:49;94816.06;;;23.88;41.69
79686;BME280;69153;47.918;11.428;2023-06-10T09:33:28;94820.13;;;24.13;41.11
79686;BME280;69153;47.918;11.428;2023-06-10T09:35:54;94816.94;;;24.47;41.02
79686;BME280;69153;47.918;11.428;2023-06-10T09:38:22;94813.94;;;24.50;39.97
79686;BME280;69153;47.918;11.428;2023-06-10T09:40:49;94810.81;;;24.60;39.59
79686;BME280;69153;47.918;11.428;2023-06-10T09:43:15;94812.44;;;24.81;41.02
79686;BME280;69153;47.918;11.428;2023-06-10T09:45:41;94819.06;;;24.99;40.60
79686;BME280;69153;47.918;11.428;2023-06-10T09:48:08;94808.44;;;25.14;39.93
79686;BME280;69153;47.918;11.428;2023-06-10T09:50:34;94807.06;;;25.08;40.05
79686;BME280;69153;47.918;11.428;2023-06-10T09:53:06;94818.31;;;25.25;40.32
79686;BME280;69153;47.918;11.428;2023-06-10T09:55:33;94813.13;;;25.14;38.74
79686;BME280;69153;47.918;11.428;2023-06-10T09:57:59;94817.81;;;25.40;38.63
79686;BME280;69153;47.918;11.428;2023-06-10T10:00:25;94818.13;;;25.62;38.49
79686;BME280;69153;47.918;11.428;2023-06-10T10:02:52;94821.75;;;25.65;37.94
79686;BME280;69153;47.918;11.428;2023-06-10T10:05:21;94815.69;;;25.59;39.39
79686;BME280;69153;47.918;11.428;2023-06-10T10:07:47;94818.72;;;25.82;38.84
79686;BME280;69153;47.918;11.428;2023-06-10T10:10:15;94821.56;;;25.97;38.02
79686;BME280;69153;47.918;11.428;2023-06-10T10:12:42;94821.81;;;25.86;37.44
79686;BME280;69153;47.918;11.428;2023-06-10T10:15:10;94820.53;;;26.00;37.65
79686;BME280;69153;47.918;11.428;2023-06-10T10:18:09;94822.91;;;25.56;36.52
79686;BME280;69153;47.918;11.428;2023-06-10T10:20:45;94814.88;;;25.38;37.22
79686;BME280;69153;47.918;11.428;2023-06-10T10:23:14;94812.97;;;25.59;37.59
79686;BME280;69153;47.918;11.428;2023-06-10T10:25:43;94812.16;;;25.64;37.15
79686;BME280;69153;47.918;11.428;2023-06-10T10:28:12;94819.28;;;26.01;36.53
79686;BME280;69153;47.918;11.428;2023-06-10T10:31:02;94818.28;;;26.12;36.59
79686;BME280;69153;47.918;11.428;2023-06-10T10:33:41;94815.44;;;26.30;36.17
79686;BME280;69153;47.918;11.428;2023-06-10T10:36:07;94807.34;;;26.38;34.30
79686;BME280;69153;47.918;11.428;2023-06-10T10:38:34;94806.75;;;26.53;34.77
79686;BME280;69153;47.918;11.428;2023-06-10T10:41:01;94811.53;;;26.39;35.16
79686;BME280;69153;47.918;11.428;2023-06-10T10:43:31;94807.69;;;26.35;35.96
79686;BME280;69153;47.918;11.428;2023-06-10T10:45:59;94803.50;;;26.54;35.99
79686;BME280;69153;47.918;11.428;2023-06-10T10:48:27;94803.91;;;26.58;34.87
79686;BME280;69153;47.918;11.428;2023-06-10T10:50:58;94812.22;;;26.81;36.09
79686;BME280;69153;47.918;11.428;2023-06-10T10:53:24;94811.44;;;26.94;36.72
79686;BME280;69153;47.918;11.428;2023-06-10T10:58:30;94812.38;;;26.96;35.26
79686;BME280;69153;47.918;11.428;2023-06-10T11:00:57;94816.56;;;26.97;35.43
79686;BME280;69153;47.918;11.428;2023-06-10T11:03:28;94808.19;;;26.95;35.61
79686;BME280;69153;47.918;11.428;2023-06-10T11:05:57;94809.81;;;26.70;35.56
79686;BME280;69153;47.918;11.428;2023-06-10T11:10:57;94804.50;;;26.64;35.71
79686;BME280;69153;47.918;11.428;2023-06-10T11:13:23;94811.06;;;26.69;35.48
79686;BME280;69153;47.918;11.428;2023-06-10T11:15:50;94806.19;;;26.75;36.14
79686;BME280;69153;47.918;11.428;2023-06-10T11:18:28;94805.47;;;26.95;34.85
79686;BME280;69153;47.918;11.428;2023-06-10T11:20:55;94808.09;;;27.09;35.33
79686;BME280;69153;47.918;11.428;2023-06-10T11:28:34;94802.88;;;26.27;34.38
79686;BME280;69153;47.918;11.428;2023-06-10T11:31:00;94806.56;;;26.30;34.85
79686;BME280;69153;47.918;11.428;2023-06-10T11:33:25;94807.16;;;26.36;34.78
79686;BME280;69153;47.918;11.428;2023-06-10T11:35:51;94803.94;;;26.24;35.41
79686;BME280;69153;47.918;11.428;2023-06-10T11:38:18;94800.28;;;26.35;35.49
79686;BME280;69153;47.918;11.428;2023-06-10T11:40:50;94802.19;;;26.48;35.91
79686;BME280;69153;47.918;11.428;2023-06-10T11:43:19;94801.53;;;26.55;35.00
79686;BME280;69153;47.918;11.428;2023-06-10T11:45:45;94797.91;;;26.81;33.17
79686;BME280;69153;47.918;11.428;2023-06-10T11:48:12;94801.31;;;26.94;34.48
79686;BME280;69153;47.918;11.428;2023-06-10T11:50:38;94796.69;;;26.89;34.86
79686;BME280;69153;47.918;11.428;2023-06-10T11:53:04;94799.22;;;26.25;35.53
79686;BME280;69153;47.918;11.428;2023-06-10T11:55:43;94785.97;;;26.35;36.66
79686;BME280;69153;47.918;11.428;2023-06-10T11:58:13;94787.53;;;26.30;35.94
79686;BME280;69153;47.918;11.428;2023-06-10T12:00:50;94789.47;;;26.43;36.01
79686;BME280;69153;47.918;11.428;2023-06-10T12:03:17;94785.53;;;26.51;35.57
79686;BME280;69153;47.918;11.428;2023-06-10T12:05:58;94783.06;;;26.82;35.49
79686;BME280;69153;47.918;11.428;2023-06-10T12:08:24;94789.81;;;26.88;35.47
79686;BME280;69153;47.918;11.428;2023-06-10T12:10:50;94787.31;;;26.69;35.68
79686;BME280;69153;47.918;11.428;2023-06-10T12:13:16;94792.97;;;26.51;35.42
79686;BME280;69153;47.918;11.428;2023-06-10T12:15:43;94797.38;;;26.20;35.80
79686;BME280;69153;47.918;11.428;2023-06-10T12:18:16;94792.75;;;26.07;36.12
79686;BME280;69153;47.918;11.428;2023-06-10T12:20:43;94783.59;;;26.18;36.97
79686;BME280;69153;47.918;11.428;2023-06-10T12:23:09;94786.13;;;26.16;37.07
79686;BME280;69153;47.918;11.428;2023-06-10T12:25:35;94789.75;;;26.18;36.82
79686;BME280;69153;47.918;11.428;2023-06-10T12:28:02;94784.75;;;26.22;35.78
79686;BME280;69153;47.918;11.428;2023-06-10T12:30:28;94784.63;;;26.28;35.19
79686;BME280;69153;47.918;11.428;2023-06-10T12:32:55;94787.34;;;26.28;34.80
79686;BME280;69153;47.918;11.428;2023-06-10T12:35:25;94789.00;;;26.52;34.32
79686;BME280;69153;47.918;11.428;2023-06-10T12:38:01;94783.09;;;26.61;34.54
79686;BME280;69153;47.918;11.428;2023-06-10T12:40:35;94783.16;;;26.68;34.46
79686;BME280;69153;47.918;11.428;2023-06-10T12:43:02;94779.50;;;26.66;34.05
79686;BME280;69153;47.918;11.428;2023-06-10T12:45:29;94774.56;;;26.85;34.11
79686;BME280;69153;47.918;11.428;2023-06-10T12:50:39;94774.41;;;27.12;33.41
79686;BME280;69153;47.918;11.428;2023-06-10T12:53:05;94761.41;;;27.25;32.77
79686;BME280;69153;47.918;11.428;2023-06-10T12:55:31;94771.03;;;27.62;32.91
79686;BME280;69153;47.918;11.428;2023-06-10T12:57:58;94768.84;;;27.61;33.48
79686;BME280;69153;47.918;11.428;2023-06-10T13:00:24;94768.59;;;27.51;32.70
79686;BME280;69153;47.918;11.428;2023-06-10T13:02:55;94765.22;;;27.66;31.61
79686;BME280;69153;47.918;11.428;2023-06-10T13:05:21;94756.69;;;27.26;30.82
79686;BME280;69153;47.918;11.428;2023-06-10T13:07:47;94758.91;;;26.99;32.33
79686;BME280;69153;47.918;11.428;2023-06-10T13:10:14;94747.94;;;27.12;32.87
79686;BME280;69153;47.918;11.428;2023-06-10T13:12:40;94744.31;;;27.17;33.26
79686;BME280;69153;47.918;11.428;2023-06-10T13:15:06;94749.28;;;27.26;33.00